Time;durP1;ratioP1;P1;durP2;ratioP2;P2;SDS_P1;SDS_P2;PMS_P1;PMS_P2;Temp;Humidity;BMP_temperature;BMP_pressure;BME280_temperature;BME280_humidity;BME280_pressure;Samples;Min_cycle;Max_cycle;Signal;HPM_P1;HPM_P2
2021/12/13 00:00:54;;;;;;;24.48;16.77;;;;;;;;;;4970907;28;20039;-76
2021/12/13 00:03:38;;;;;;;22.63;15.98;;;;;;;;;;4972481;28;20047;-76
2021/12/13 00:06:08;;;;;;;23.63;16.48;;;;;;;;;;4976638;28;20069;-75
2021/12/13 00:08:37;;;;;;;18.30;14.85;;;;;;;;;;4957513;28;20218;-75
2021/12/13 00:11:38;;;;;;;18.25;14.40;;;;;;;;;;4974478;28;20458;-75
2021/12/13 00:14:16;;;;;;;25.63;17.80;;;;;;;;;;4964944;28;20082;-75
2021/12/13 00:16:45;;;;;;;21.50;16.02;;;;;;;;;;4967912;28;20578;-75
2021/12/13 00:19:14;;;;;;;24.50;17.92;;;;;;;;;;4981819;28;20093;-76
2021/12/13 00:21:47;;;;;;;29.70;20.95;;;;;;;;;;4980266;28;20133;-76
2021/12/13 00:24:21;;;;;;;35.45;22.20;;;;;;;;;;4993064;28;20066;-75
2021/12/13 00:26:50;;;;;;;30.98;20.92;;;;;;;;;;4984412;28;20103;-75
2021/12/13 00:29:20;;;;;;;33.85;23.40;;;;;;;;;;4966502;28;20050;-75
2021/12/13 00:31:58;;;;;;;17.15;13.88;;;;;;;;;;4978895;28;20070;-75
2021/12/13 00:34:33;;;;;;;18.65;14.63;;;;;;;;;;4978438;28;20376;-75
2021/12/13 00:37:23;;;;;;;19.23;14.63;;;;;;;;;;4970963;28;20038;-75
2021/12/13 00:39:50;;;;;;;16.50;13.50;;;;;;;;;;4994376;28;20038;-75
2021/12/13 00:42:19;;;;;;;19.05;14.52;;;;;;;;;;4992818;28;20559;-75
2021/12/13 00:44:48;;;;;;;17.20;14.40;;;;;;;;;;4973728;28;20066;-75
2021/12/13 00:47:45;;;;;;;18.10;15.57;;;;;;;;;;4991027;28;20038;-76
2021/12/13 00:50:16;;;;;;;31.60;20.50;;;;;;;;;;4911116;29;20052;-76
2021/12/13 00:52:44;;;;;;;30.40;19.80;;;;;;;;;;4913903;29;20055;-76
2021/12/13 00:55:20;;;;;;;26.52;17.77;;;;;;;;;;4895683;29;20124;-76
2021/12/13 00:57:51;;;;;;;23.88;16.77;;;;;;;;;;4911549;29;20564;-76
2021/12/13 01:00:19;;;;;;;26.02;16.15;;;;;;;;;;4921074;29;20142;-76
2021/12/13 01:02:49;;;;;;;36.80;20.88;;;;;;;;;;4895309;29;20425;-76
2021/12/13 01:05:16;;;;;;;48.22;24.55;;;;;;;;;;4908591;29;20040;-76
2021/12/13 01:07:59;;;;;;;31.77;18.48;;;;;;;;;;4910598;29;20082;-75
2021/12/13 01:10:45;;;;;;;53.92;29.73;;;;;;;;;;4911039;29;20489;-76
2021/12/13 01:13:32;;;;;;;60.00;33.17;;;;;;;;;;4910003;29;20138;-74
2021/12/13 01:16:11;;;;;;;43.55;26.38;;;;;;;;;;4940459;29;20055;-75
2021/12/13 01:19:02;;;;;;;52.72;29.20;;;;;;;;;;4924193;29;20465;-75
2021/12/13 01:21:39;;;;;;;68.47;33.55;;;;;;;;;;4927030;29;20168;-76
2021/12/13 01:24:29;;;;;;;38.17;23.27;;;;;;;;;;4915930;29;20071;-76
2021/12/13 01:27:00;;;;;;;32.60;20.35;;;;;;;;;;4943296;28;20488;-74
2021/12/13 01:29:28;;;;;;;29.73;20.13;;;;;;;;;;4933196;29;20083;-76
2021/12/13 01:31:57;;;;;;;30.40;19.27;;;;;;;;;;4932029;29;20122;-76
2021/12/13 01:34:25;;;;;;;28.83;17.90;;;;;;;;;;4932516;29;20138;-76
2021/12/13 01:37:05;;;;;;;39.63;23.05;;;;;;;;;;4931121;29;20047;-74
2021/12/13 01:39:34;;;;;;;34.42;21.13;;;;;;;;;;4948614;28;20130;-76
2021/12/13 01:42:11;;;;;;;36.28;21.65;;;;;;;;;;4950839;28;20050;-75
2021/12/13 01:44:41;;;;;;;28.23;18.77;;;;;;;;;;4948092;28;20043;-74
2021/12/13 01:47:16;;;;;;;21.35;15.90;;;;;;;;;;4937277;29;20121;-76
2021/12/13 01:49:47;;;;;;;24.80;16.70;;;;;;;;;;4933106;29;20051;-76
2021/12/13 01:52:23;;;;;;;22.75;16.05;;;;;;;;;;4950582;28;20130;-76
2021/12/13 01:54:51;;;;;;;24.17;15.82;;;;;;;;;;4979361;28;20062;-75
2021/12/13 01:57:38;;;;;;;35.08;19.85;;;;;;;;;;4988491;28;20494;-75
2021/12/13 02:00:18;;;;;;;30.48;19.27;;;;;;;;;;4973656;28;20042;-76
2021/12/13 02:02:47;;;;;;;22.95;15.52;;;;;;;;;;4987011;28;20035;-76
2021/12/13 02:05:26;;;;;;;20.55;14.75;;;;;;;;;;4972457;28;20046;-76
2021/12/13 02:07:58;;;;;;;35.95;20.00;;;;;;;;;;4982738;28;20287;-76
2021/12/13 02:10:38;;;;;;;39.15;22.30;;;;;;;;;;4972887;28;20142;-76
2021/12/13 02:13:07;;;;;;;33.45;20.17;;;;;;;;;;4985069;28;20035;-76
2021/12/13 02:18:26;;;;;;;34.10;19.67;;;;;;;;;;4958769;28;20078;-76
2021/12/13 02:21:02;;;;;;;42.03;22.33;;;;;;;;;;4970024;28;20187;-76
2021/12/13 02:23:30;;;;;;;32.28;19.55;;;;;;;;;;4970188;28;20116;-76
2021/12/13 02:25:58;;;;;;;46.35;22.98;;;;;;;;;;4989240;28;20142;-75
2021/12/13 02:28:27;;;;;;;39.17;21.83;;;;;;;;;;4989113;28;20046;-76
2021/12/13 02:30:57;;;;;;;40.15;22.45;;;;;;;;;;4988824;28;20129;-76
2021/12/13 02:33:36;;;;;;;26.05;16.02;;;;;;;;;;4971266;28;20434;-76
2021/12/13 02:36:08;;;;;;;25.02;17.23;;;;;;;;;;4985370;28;20122;-75
2021/12/13 02:38:37;;;;;;;38.33;21.58;;;;;;;;;;4989536;28;20069;-76
2021/12/13 02:41:05;;;;;;;46.38;23.30;;;;;;;;;;5003278;28;20058;-76
2021/12/13 02:43:35;;;;;;;38.33;19.63;;;;;;;;;;4988902;28;20426;-76
2021/12/13 02:46:03;;;;;;;23.35;16.75;;;;;;;;;;4976505;28;20363;-76
2021/12/13 02:48:42;;;;;;;22.33;15.55;;;;;;;;;;4972689;28;20070;-76
2021/12/13 02:51:19;;;;;;;20.73;15.52;;;;;;;;;;4984721;28;20047;-76
2021/12/13 02:54:10;;;;;;;22.00;14.60;;;;;;;;;;4966079;28;20502;-75
2021/12/13 02:56:39;;;;;;;21.63;15.90;;;;;;;;;;4893475;29;20067;-75
2021/12/13 02:59:08;;;;;;;25.40;16.80;;;;;;;;;;4909170;29;20218;-76
2021/12/13 03:01:44;;;;;;;31.58;19.52;;;;;;;;;;4908266;29;20052;-76
2021/12/13 03:04:14;;;;;;;25.15;16.75;;;;;;;;;;4913755;29;20044;-76
2021/12/13 03:06:52;;;;;;;22.73;16.23;;;;;;;;;;4912599;29;20458;-76
2021/12/13 03:09:21;;;;;;;36.90;19.67;;;;;;;;;;4906120;29;20091;-75
2021/12/13 03:11:49;;;;;;;21.00;15.25;;;;;;;;;;4913861;29;20495;-76
2021/12/13 03:14:19;;;;;;;21.58;15.27;;;;;;;;;;4925394;29;20564;-75
2021/12/13 03:16:56;;;;;;;21.90;15.65;;;;;;;;;;4916466;29;20051;-76
2021/12/13 03:19:41;;;;;;;20.98;14.50;;;;;;;;;;4907390;29;20053;-76
2021/12/13 03:22:29;;;;;;;31.38;18.42;;;;;;;;;;4910520;29;20135;-76
2021/12/13 03:25:06;;;;;;;18.80;13.07;;;;;;;;;;4897770;29;20096;-75
2021/12/13 03:27:36;;;;;;;18.55;14.05;;;;;;;;;;4913853;29;20052;-76
2021/12/13 03:30:03;;;;;;;21.38;14.68;;;;;;;;;;4911936;29;20591;-75
2021/12/13 03:32:43;;;;;;;21.27;14.70;;;;;;;;;;4903118;29;20528;-76
2021/12/13 03:35:11;;;;;;;23.77;16.13;;;;;;;;;;4958340;28;20165;-75
2021/12/13 03:37:39;;;;;;;21.45;13.13;;;;;;;;;;4982637;28;20554;-74
2021/12/13 03:40:14;;;;;;;23.45;16.90;;;;;;;;;;4972366;28;20039;-77
2021/12/13 03:42:44;;;;;;;21.63;15.77;;;;;;;;;;4990647;28;20062;-76
2021/12/13 03:45:22;;;;;;;28.65;17.80;;;;;;;;;;4964749;28;20113;-74
2021/12/13 03:47:51;;;;;;;18.88;14.07;;;;;;;;;;4958950;28;20526;-74
2021/12/13 03:50:26;;;;;;;22.65;15.90;;;;;;;;;;4985151;28;20129;-76
2021/12/13 03:52:55;;;;;;;16.98;13.30;;;;;;;;;;4961587;28;20051;-76
2021/12/13 03:55:23;;;;;;;27.35;17.30;;;;;;;;;;4968538;28;20040;-75
2021/12/13 03:57:54;;;;;;;34.30;18.27;;;;;;;;;;4987621;28;20129;-74
2021/12/13 04:00:23;;;;;;;19.73;14.05;;;;;;;;;;4985042;28;20133;-73
2021/12/13 04:02:51;;;;;;;26.83;16.00;;;;;;;;;;4977499;28;20053;-76
2021/12/13 04:05:20;;;;;;;28.20;16.10;;;;;;;;;;4974920;28;20040;-76
2021/12/13 04:07:49;;;;;;;15.90;12.73;;;;;;;;;;4987011;28;20402;-75
2021/12/13 04:10:21;;;;;;;17.38;12.63;;;;;;;;;;4984364;28;20078;-76
2021/12/13 04:12:52;;;;;;;16.75;12.98;;;;;;;;;;4972605;28;20443;-76
2021/12/13 04:15:27;;;;;;;16.63;12.27;;;;;;;;;;4971287;28;20074;-77
2021/12/13 04:18:02;;;;;;;24.33;16.25;;;;;;;;;;4984080;28;20471;-76
2021/12/13 04:20:31;;;;;;;31.25;17.38;;;;;;;;;;4970144;28;20038;-75
2021/12/13 04:23:03;;;;;;;32.72;17.48;;;;;;;;;;4972733;28;20066;-76
2021/12/13 04:25:33;;;;;;;22.33;14.80;;;;;;;;;;5007785;28;20034;-76
2021/12/13 04:28:03;;;;;;;30.38;17.30;;;;;;;;;;4991467;28;20430;-75
2021/12/13 04:30:33;;;;;;;19.02;13.75;;;;;;;;;;4991759;28;20050;-76
2021/12/13 04:33:04;;;;;;;26.20;16.52;;;;;;;;;;4974004;28;20046;-76
2021/12/13 04:35:31;;;;;;;31.33;16.23;;;;;;;;;;4990592;28;20463;-76
2021/12/13 04:38:00;;;;;;;22.10;15.60;;;;;;;;;;4983073;28;20467;-74
2021/12/13 04:40:32;;;;;;;25.88;16.10;;;;;;;;;;4990592;28;20085;-77
2021/12/13 04:43:01;;;;;;;22.80;15.65;;;;;;;;;;4990559;28;20042;-76
2021/12/13 04:45:29;;;;;;;24.88;15.23;;;;;;;;;;4973848;28;20046;-76
2021/12/13 04:47:57;;;;;;;25.88;15.85;;;;;;;;;;4987294;28;20145;-76
2021/12/13 04:50:30;;;;;;;39.33;18.70;;;;;;;;;;4989940;28;20042;-77
2021/12/13 04:52:58;;;;;;;17.70;12.90;;;;;;;;;;4970205;28;21036;-75
2021/12/13 04:55:28;;;;;;;24.23;14.93;;;;;;;;;;5007673;28;20125;-75
2021/12/13 04:57:58;;;;;;;21.55;14.85;;;;;;;;;;4973721;28;20125;-75
2021/12/13 05:00:28;;;;;;;36.88;19.00;;;;;;;;;;4988893;28;20490;-75
2021/12/13 05:02:58;;;;;;;27.73;17.17;;;;;;;;;;4966454;28;20043;-76
2021/12/13 05:05:27;;;;;;;19.70;13.93;;;;;;;;;;4955193;28;20043;-77
2021/12/13 05:07:56;;;;;;;22.17;14.60;;;;;;;;;;4988895;28;20068;-75
2021/12/13 05:10:25;;;;;;;19.40;13.23;;;;;;;;;;4982809;28;20330;-76
2021/12/13 05:13:09;;;;;;;17.13;12.60;;;;;;;;;;4985762;28;20046;-75
2021/12/13 05:15:39;;;;;;;19.58;12.82;;;;;;;;;;4986155;28;20040;-75
2021/12/13 05:18:08;;;;;;;13.82;11.40;;;;;;;;;;4968533;28;20436;-76
2021/12/13 05:20:38;;;;;;;17.63;13.02;;;;;;;;;;4955677;28;20082;-76
2021/12/13 05:23:07;;;;;;;24.02;14.45;;;;;;;;;;4977991;28;20065;-75
2021/12/13 05:25:39;;;;;;;20.95;14.65;;;;;;;;;;4987078;28;20062;-76
2021/12/13 05:28:07;;;;;;;24.88;13.85;;;;;;;;;;4958718;28;20077;-76
2021/12/13 05:30:35;;;;;;;23.75;13.75;;;;;;;;;;4985028;28;20132;-76
2021/12/13 05:33:06;;;;;;;19.27;12.60;;;;;;;;;;4985882;28;20125;-76
2021/12/13 05:35:34;;;;;;;22.17;12.93;;;;;;;;;;4969116;28;20082;-76
2021/12/13 05:38:05;;;;;;;17.40;12.07;;;;;;;;;;4987541;28;20150;-74
2021/12/13 05:40:46;;;;;;;19.85;12.75;;;;;;;;;;4986671;28;20129;-75
2021/12/13 05:43:19;;;;;;;18.92;11.60;;;;;;;;;;4994856;28;20070;-77
2021/12/13 05:45:49;;;;;;;18.90;12.43;;;;;;;;;;4998192;28;20113;-75
2021/12/13 05:48:22;;;;;;;30.85;14.27;;;;;;;;;;4987850;28;20136;-75
2021/12/13 05:50:53;;;;;;;27.30;14.98;;;;;;;;;;4982751;28;20078;-76
2021/12/13 05:53:23;;;;;;;28.25;15.30;;;;;;;;;;4984309;28;20046;-77
2021/12/13 05:56:09;;;;;;;21.88;13.70;;;;;;;;;;4971847;28;20038;-76
2021/12/13 05:58:48;;;;;;;25.00;14.40;;;;;;;;;;4988931;28;20046;-77
2021/12/13 06:01:21;;;;;;;19.27;12.68;;;;;;;;;;4978449;28;20042;-76
2021/12/13 06:03:52;;;;;;;31.30;16.67;;;;;;;;;;4968915;28;20070;-76
2021/12/13 06:06:24;;;;;;;15.10;11.10;;;;;;;;;;4987281;28;20558;-76
2021/12/13 06:08:54;;;;;;;16.60;11.73;;;;;;;;;;4984563;28;20347;-75
2021/12/13 06:11:32;;;;;;;19.73;12.63;;;;;;;;;;4994261;28;20171;-76
2021/12/13 06:14:16;;;;;;;27.60;14.88;;;;;;;;;;4993682;28;20046;-76
2021/12/13 06:17:03;;;;;;;21.92;14.02;;;;;;;;;;4972996;28;20105;-76
2021/12/13 06:19:33;;;;;;;25.65;14.52;;;;;;;;;;4989259;28;20034;-76
2021/12/13 06:22:03;;;;;;;23.65;15.25;;;;;;;;;;4988856;28;20588;-77
2021/12/13 06:24:33;;;;;;;20.55;13.10;;;;;;;;;;4969524;28;20069;-74
2021/12/13 06:27:05;;;;;;;27.02;15.23;;;;;;;;;;4966524;28;20041;-77
2021/12/13 06:29:50;;;;;;;15.70;12.05;;;;;;;;;;4966778;28;20074;-76
2021/12/13 06:32:37;;;;;;;19.70;12.48;;;;;;;;;;4975587;28;20070;-76
2021/12/13 06:35:24;;;;;;;35.00;19.83;;;;;;;;;;4954202;28;20145;-77
2021/12/13 06:37:51;;;;;;;20.75;14.32;;;;;;;;;;4963393;28;20047;-76
2021/12/13 06:40:27;;;;;;;23.00;13.73;;;;;;;;;;4991563;28;20038;-76
2021/12/13 06:42:55;;;;;;;13.88;10.80;;;;;;;;;;4989502;28;20154;-76
2021/12/13 06:45:25;;;;;;;24.05;13.57;;;;;;;;;;4983609;28;20471;-76
2021/12/13 06:47:54;;;;;;;26.52;14.13;;;;;;;;;;4973465;28;20137;-75
2021/12/13 06:50:23;;;;;;;21.15;14.00;;;;;;;;;;4988862;28;20521;-76
2021/12/13 06:52:51;;;;;;;25.75;16.17;;;;;;;;;;4990960;28;20034;-76
2021/12/13 06:55:19;;;;;;;29.13;16.30;;;;;;;;;;4974820;28;20238;-76
2021/12/13 06:57:49;;;;;;;21.63;13.77;;;;;;;;;;4987796;28;20042;-74
2021/12/13 07:00:22;;;;;;;23.33;13.90;;;;;;;;;;4956212;28;20050;-77
2021/12/13 07:02:53;;;;;;;25.52;13.98;;;;;;;;;;4976979;28;20045;-77
2021/12/13 07:05:32;;;;;;;23.85;13.35;;;;;;;;;;4983320;28;20054;-77
2021/12/13 07:08:00;;;;;;;26.40;13.18;;;;;;;;;;4975303;28;20415;-77
2021/12/13 07:10:33;;;;;;;22.30;12.98;;;;;;;;;;5017097;23;20554;-72
2021/12/13 07:13:05;;;;;;;29.23;14.63;;;;;;;;;;4970554;28;20476;-73
2021/12/13 07:15:33;;;;;;;33.45;15.38;;;;;;;;;;4982027;28;20097;-74
2021/12/13 07:18:29;;;;;;;34.97;15.27;;;;;;;;;;4982867;28;20050;-76
2021/12/13 07:20:57;;;;;;;;;;;;;;;;;;4976144;28;20053;-74
2021/12/13 07:23:24;;;;;;;23.83;13.55;;;;;;;;;;4985358;28;20008;-75
2021/12/13 07:25:52;;;;;;;20.95;12.50;;;;;;;;;;4985913;28;20038;-75
2021/12/13 07:28:31;;;;;;;38.17;16.83;;;;;;;;;;4984360;28;20502;-75
2021/12/13 07:30:59;;;;;;;38.28;16.63;;;;;;;;;;4982129;28;20050;-75
2021/12/13 07:33:40;;;;;;;28.80;14.23;;;;;;;;;;4987690;28;20054;-76
2021/12/13 07:36:16;;;;;;;27.45;14.50;;;;;;;;;;4985733;28;20057;-75
2021/12/13 07:38:48;;;;;;;37.05;15.77;;;;;;;;;;4981213;28;20476;-76
2021/12/13 07:41:19;;;;;;;25.67;14.23;;;;;;;;;;4982933;28;20043;-76
2021/12/13 07:43:47;;;;;;;34.50;16.27;;;;;;;;;;4980338;28;20045;-75
2021/12/13 07:46:20;;;;;;;47.22;17.55;;;;;;;;;;4980237;28;20039;-75
2021/12/13 07:48:49;;;;;;;18.45;9.85;;;;;;;;;;4979373;28;20415;-76
2021/12/13 07:51:18;;;;;;;27.33;13.40;;;;;;;;;;4972708;28;20047;-75
2021/12/13 07:53:58;;;;;;;24.73;12.75;;;;;;;;;;4979576;28;20120;-75
2021/12/13 07:56:25;;;;;;;25.20;12.32;;;;;;;;;;4981877;28;20046;-74
2021/12/13 07:58:58;;;;;;;21.10;11.80;;;;;;;;;;4980625;28;20130;-75
2021/12/13 08:01:28;;;;;;;22.25;10.80;;;;;;;;;;4979374;28;20437;-75
2021/12/13 08:03:58;;;;;;;23.90;11.60;;;;;;;;;;4966927;28;20544;-75
2021/12/13 08:06:32;;;;;;;31.67;12.40;;;;;;;;;;4985165;28;20053;-75
2021/12/13 08:09:04;;;;;;;26.88;12.48;;;;;;;;;;4982123;28;20042;-75
2021/12/13 08:11:35;;;;;;;33.90;14.45;;;;;;;;;;4977613;28;20785;-75
2021/12/13 08:14:02;;;;;;;31.70;13.90;;;;;;;;;;4983591;28;20113;-75
2021/12/13 08:16:31;;;;;;;24.27;12.77;;;;;;;;;;4970032;28;20455;-76
2021/12/13 08:19:04;;;;;;;36.08;15.18;;;;;;;;;;4978147;28;20130;-75
2021/12/13 08:21:36;;;;;;;20.55;12.25;;;;;;;;;;4983834;28;20451;-75
2021/12/13 08:24:04;;;;;;;30.67;13.88;;;;;;;;;;4985485;28;20043;-74
2021/12/13 08:26:42;;;;;;;28.02;15.00;;;;;;;;;;4974824;28;20394;-75
2021/12/13 08:29:31;;;;;;;22.20;12.35;;;;;;;;;;4977268;28;20069;-74
2021/12/13 08:32:05;;;;;;;19.73;10.27;;;;;;;;;;4977106;28;20046;-75
2021/12/13 08:34:55;;;;;;;24.38;12.18;;;;;;;;;;4978062;28;20053;-75
2021/12/13 08:37:25;;;;;;;20.38;10.45;;;;;;;;;;4986316;28;20142;-75
2021/12/13 08:39:54;;;;;;;18.48;9.38;;;;;;;;;;4985008;28;20393;-75
2021/12/13 08:42:23;;;;;;;20.27;9.73;;;;;;;;;;4980465;28;20559;-74
2021/12/13 08:45:06;;;;;;;21.63;9.48;;;;;;;;;;4973658;28;20043;-74
2021/12/13 08:47:59;;;;;;;15.80;8.43;;;;;;;;;;4980730;28;20038;-74
2021/12/13 08:50:45;;;;;;;15.52;9.13;;;;;;;;;;4946534;29;20452;-75
2021/12/13 08:53:17;;;;;;;20.17;10.73;;;;;;;;;;4945510;29;20079;-75
2021/12/13 08:55:51;;;;;;;22.85;10.50;;;;;;;;;;4950149;29;20070;-76
2021/12/13 08:58:20;;;;;;;18.63;10.57;;;;;;;;;;4945146;29;20047;-75
2021/12/13 09:00:51;;;;;;;16.92;9.50;;;;;;;;;;4931922;29;20160;-75
2021/12/13 09:03:27;;;;;;;21.17;10.57;;;;;;;;;;4922904;29;20107;-75
2021/12/13 09:05:56;;;;;;;18.92;10.40;;;;;;;;;;4939637;29;20043;-75
2021/12/13 09:08:26;;;;;;;21.77;10.20;;;;;;;;;;4941105;29;20467;-75
2021/12/13 09:10:58;;;;;;;24.60;10.93;;;;;;;;;;4947882;28;20106;-75
2021/12/13 09:13:38;;;;;;;19.27;9.57;;;;;;;;;;4948492;28;20144;-75
2021/12/13 09:16:07;;;;;;;21.52;9.63;;;;;;;;;;4935718;29;20130;-74
2021/12/13 09:18:34;;;;;;;18.90;11.18;;;;;;;;;;4948118;28;20039;-74
2021/12/13 09:21:03;;;;;;;14.20;8.80;;;;;;;;;;4944765;29;20046;-75
2021/12/13 09:23:35;;;;;;;19.95;10.45;;;;;;;;;;4936242;29;20367;-75
2021/12/13 09:26:12;;;;;;;20.55;11.52;;;;;;;;;;4941600;28;20251;-74
2021/12/13 09:28:45;;;;;;;18.13;9.40;;;;;;;;;;4977561;28;20084;-76
2021/12/13 09:31:16;;;;;;;21.38;10.00;;;;;;;;;;4981058;28;20050;-75
2021/12/13 09:33:44;;;;;;;20.45;10.00;;;;;;;;;;4990615;28;20517;-75
2021/12/13 09:36:13;;;;;;;18.50;9.95;;;;;;;;;;4965649;28;20488;-75
2021/12/13 09:38:43;;;;;;;20.80;10.48;;;;;;;;;;4985829;28;20142;-75
2021/12/13 09:41:18;;;;;;;19.10;10.20;;;;;;;;;;4973595;28;20046;-75
2021/12/13 09:43:46;;;;;;;18.35;11.15;;;;;;;;;;4978753;28;20534;-75
2021/12/13 09:46:15;;;;;;;19.02;10.38;;;;;;;;;;4980634;28;20098;-75
2021/12/13 09:48:46;;;;;;;17.90;10.40;;;;;;;;;;4983600;28;20636;-76
2021/12/13 09:51:14;;;;;;;;;;;;;;;;;;4977266;28;20090;-75
2021/12/13 09:53:42;;;;;;;22.83;11.55;;;;;;;;;;4979659;28;20416;-76
2021/12/13 09:56:13;;;;;;;22.15;11.13;;;;;;;;;;4981423;28;20078;-74
2021/12/13 09:58:46;;;;;;;18.60;11.05;;;;;;;;;;4978809;28;20042;-75
2021/12/13 10:01:16;;;;;;;21.63;11.07;;;;;;;;;;4980373;28;20054;-75
2021/12/13 10:03:44;;;;;;;22.38;10.73;;;;;;;;;;4983214;28;20043;-75
2021/12/13 10:06:12;;;;;;;16.42;9.40;;;;;;;;;;4983359;28;20072;-75
2021/12/13 10:08:45;;;;;;;15.40;9.80;;;;;;;;;;4986917;28;20069;-75
2021/12/13 10:11:16;;;;;;;19.33;10.40;;;;;;;;;;4975350;28;20042;-76
2021/12/13 10:13:44;;;;;;;18.15;10.23;;;;;;;;;;4987352;28;20038;-75
2021/12/13 10:16:26;;;;;;;19.80;10.13;;;;;;;;;;4988269;28;20050;-75
2021/12/13 10:18:55;;;;;;;18.98;10.40;;;;;;;;;;4989293;28;20061;-75
2021/12/13 10:21:25;;;;;;;20.42;10.82;;;;;;;;;;4986598;28;20149;-76
2021/12/13 10:23:55;;;;;;;20.73;9.90;;;;;;;;;;4969839;28;20142;-76
2021/12/13 10:26:29;;;;;;;21.30;10.35;;;;;;;;;;4980559;28;20049;-75
2021/12/13 10:28:59;;;;;;;21.10;10.18;;;;;;;;;;4990020;28;20112;-76
2021/12/13 10:31:29;;;;;;;20.83;10.77;;;;;;;;;;4981536;28;20410;-75
2021/12/13 10:33:58;;;;;;;17.77;9.38;;;;;;;;;;4988633;28;20129;-76
2021/12/13 10:36:28;;;;;;;19.48;9.45;;;;;;;;;;4989798;28;20053;-75
2021/12/13 10:38:57;;;;;;;18.35;10.48;;;;;;;;;;4970328;28;20050;-75
2021/12/13 10:41:35;;;;;;;27.48;11.07;;;;;;;;;;4980589;28;20481;-75
2021/12/13 10:44:08;;;;;;;20.27;10.50;;;;;;;;;;4989574;28;20047;-75
2021/12/13 10:46:40;;;;;;;19.90;10.93;;;;;;;;;;4974275;28;20129;-76
2021/12/13 10:49:15;;;;;;;20.77;10.63;;;;;;;;;;4985799;28;20046;-76
2021/12/13 10:51:45;;;;;;;19.77;9.35;;;;;;;;;;4990469;28;20089;-76
2021/12/13 10:54:15;;;;;;;18.90;9.93;;;;;;;;;;4970190;28;20039;-76
2021/12/13 10:56:45;;;;;;;17.90;9.90;;;;;;;;;;4985999;28;20089;-75
2021/12/13 10:59:14;;;;;;;22.85;11.15;;;;;;;;;;4980847;28;20129;-75
2021/12/13 11:01:43;;;;;;;23.27;11.18;;;;;;;;;;4969696;28;20130;-75
2021/12/13 11:04:15;;;;;;;23.20;11.15;;;;;;;;;;4981027;28;20073;-75
2021/12/13 11:06:43;;;;;;;19.17;11.03;;;;;;;;;;4979129;28;20110;-75
2021/12/13 11:09:13;;;;;;;29.50;12.30;;;;;;;;;;4986092;28;20561;-75
2021/12/13 11:11:46;;;;;;;21.15;10.60;;;;;;;;;;4991317;28;20026;-75
2021/12/13 11:14:17;;;;;;;23.23;11.40;;;;;;;;;;4992190;28;20495;-75
2021/12/13 11:16:47;;;;;;;23.50;10.95;;;;;;;;;;4975077;28;20502;-75
2021/12/13 11:19:17;;;;;;;19.83;10.60;;;;;;;;;;4969138;28;20411;-75
2021/12/13 11:21:46;;;;;;;31.67;13.02;;;;;;;;;;4985623;28;20070;-75
2021/12/13 11:24:16;;;;;;;15.90;8.75;;;;;;;;;;4984251;28;20125;-75
2021/12/13 11:26:44;;;;;;;21.42;10.85;;;;;;;;;;4982448;28;20117;-75
2021/12/13 11:29:14;;;;;;;17.70;9.38;;;;;;;;;;4982916;28;20049;-75
2021/12/13 11:32:09;;;;;;;20.20;10.13;;;;;;;;;;4979658;28;20141;-75
2021/12/13 11:34:54;;;;;;;18.40;10.40;;;;;;;;;;4986798;28;20101;-75
2021/12/13 11:37:30;;;;;;;19.20;10.23;;;;;;;;;;4987662;28;20073;-76
2021/12/13 11:40:03;;;;;;;18.15;10.50;;;;;;;;;;4971046;28;20074;-75
2021/12/13 11:42:54;;;;;;;19.95;9.35;;;;;;;;;;5000329;28;20039;-75
2021/12/13 11:45:41;;;;;;;18.67;10.25;;;;;;;;;;4989200;28;20580;-76
2021/12/13 11:48:27;;;;;;;20.77;10.43;;;;;;;;;;4990395;28;20133;-75
2021/12/13 11:51:21;;;;;;;29.73;13.60;;;;;;;;;;4986649;28;20053;-75
2021/12/13 11:53:48;;;;;;;21.48;10.88;;;;;;;;;;4963924;28;20538;-75
2021/12/13 11:56:21;;;;;;;21.13;10.93;;;;;;;;;;4964562;28;20133;-76
2021/12/13 11:58:52;;;;;;;18.25;9.60;;;;;;;;;;4986578;28;20132;-76
2021/12/13 12:01:43;;;;;;;25.35;10.98;;;;;;;;;;4986958;28;20046;-76
2021/12/13 12:04:34;;;;;;;24.73;11.70;;;;;;;;;;4988361;28;20387;-76
2021/12/13 12:07:13;;;;;;;18.45;9.73;;;;;;;;;;4987972;28;20077;-76
2021/12/13 12:09:44;;;;;;;21.95;10.05;;;;;;;;;;4988410;28;20050;-77
2021/12/13 12:12:21;;;;;;;19.45;10.50;;;;;;;;;;4991784;28;20502;-76
2021/12/13 12:14:50;;;;;;;22.15;10.80;;;;;;;;;;4989847;28;20094;-75
2021/12/13 12:17:19;;;;;;;21.08;10.93;;;;;;;;;;4987258;28;20312;-75
2021/12/13 12:19:47;;;;;;;16.50;9.57;;;;;;;;;;4988656;28;20074;-75
2021/12/13 12:22:18;;;;;;;18.33;9.38;;;;;;;;;;4988923;28;20054;-76
2021/12/13 12:24:45;;;;;;;21.97;10.00;;;;;;;;;;4991731;28;20050;-76
2021/12/13 12:27:21;;;;;;;16.50;9.60;;;;;;;;;;4992256;28;20289;-76
2021/12/13 12:29:54;;;;;;;19.98;10.63;;;;;;;;;;4991331;28;20157;-76
2021/12/13 12:32:28;;;;;;;14.88;8.25;;;;;;;;;;4991335;28;20125;-76
2021/12/13 12:34:55;;;;;;;15.02;9.10;;;;;;;;;;4990968;28;20054;-76
2021/12/13 12:37:31;;;;;;;20.95;10.43;;;;;;;;;;4988714;28;20085;-76
2021/12/13 12:40:08;;;;;;;14.77;8.73;;;;;;;;;;4991736;28;20102;-76
2021/12/13 12:42:40;;;;;;;12.70;8.38;;;;;;;;;;4998810;28;20120;-76
2021/12/13 12:45:10;;;;;;;18.08;10.25;;;;;;;;;;5011625;28;20069;-76
2021/12/13 12:47:38;;;;;;;14.48;9.80;;;;;;;;;;4972378;28;20066;-76
2021/12/13 12:50:26;;;;;;;16.60;10.05;;;;;;;;;;4991592;28;20077;-76
2021/12/13 12:52:59;;;;;;;15.80;8.88;;;;;;;;;;4988854;28;20529;-74
2021/12/13 12:55:32;;;;;;;15.75;8.13;;;;;;;;;;4986270;28;20043;-76
2021/12/13 12:58:00;;;;;;;16.63;9.50;;;;;;;;;;4987419;28;20473;-75
2021/12/13 13:00:29;;;;;;;14.73;9.38;;;;;;;;;;4990718;28;20065;-76
2021/12/13 13:02:57;;;;;;;15.43;9.57;;;;;;;;;;4991757;28;20034;-76
2021/12/13 13:05:26;;;;;;;15.38;8.48;;;;;;;;;;4991767;28;20097;-75
2021/12/13 13:07:54;;;;;;;15.63;9.55;;;;;;;;;;4991452;28;20168;-75
2021/12/13 13:13:16;;;;;;;19.58;10.32;;;;;;;;;;4991787;28;20477;-75
2021/12/13 13:15:49;;;;;;;17.83;10.27;;;;;;;;;;4990430;28;20129;-75
2021/12/13 13:18:22;;;;;;;17.70;10.95;;;;;;;;;;4988466;28;20042;-75
2021/12/13 13:20:55;;;;;;;21.33;10.55;;;;;;;;;;4990053;28;20046;-75
2021/12/13 13:23:23;;;;;;;20.98;11.10;;;;;;;;;;4989041;28;20564;-75
2021/12/13 13:25:54;;;;;;;21.25;10.85;;;;;;;;;;4990847;28;20561;-75
2021/12/13 13:28:23;;;;;;;21.02;11.15;;;;;;;;;;4988346;28;20038;-76
2021/12/13 13:31:01;;;;;;;22.55;11.25;;;;;;;;;;4996862;28;20412;-74
2021/12/13 13:33:42;;;;;;;17.20;10.20;;;;;;;;;;4979992;28;20046;-75
2021/12/13 13:36:12;;;;;;;24.80;12.25;;;;;;;;;;4993972;28;20064;-75
2021/12/13 13:38:39;;;;;;;18.27;10.10;;;;;;;;;;4993472;28;20082;-75
2021/12/13 13:41:09;;;;;;;19.42;10.18;;;;;;;;;;4989565;28;20472;-75
2021/12/13 13:43:39;;;;;;;19.17;10.63;;;;;;;;;;4989765;28;20138;-75
2021/12/13 13:46:07;;;;;;;20.90;10.55;;;;;;;;;;4988810;28;20051;-75
2021/12/13 13:48:39;;;;;;;18.25;9.93;;;;;;;;;;4990886;28;20160;-75
2021/12/13 13:51:08;;;;;;;19.45;10.48;;;;;;;;;;4991468;28;20046;-75
2021/12/13 13:53:38;;;;;;;24.35;11.98;;;;;;;;;;4991278;28;20038;-75
2021/12/13 13:56:08;;;;;;;25.75;11.25;;;;;;;;;;4992187;28;20185;-75
2021/12/13 13:58:47;;;;;;;19.38;9.88;;;;;;;;;;4989845;28;20582;-76
2021/12/13 14:01:18;;;;;;;17.92;9.77;;;;;;;;;;4989223;28;20040;-76
2021/12/13 14:03:47;;;;;;;23.13;11.18;;;;;;;;;;4988323;28;20085;-76
2021/12/13 14:06:17;;;;;;;22.42;10.80;;;;;;;;;;4989360;28;20093;-75
2021/12/13 14:08:52;;;;;;;28.13;11.35;;;;;;;;;;4986893;28;20039;-76
2021/12/13 14:11:20;;;;;;;21.27;10.05;;;;;;;;;;4987909;28;20049;-75
2021/12/13 14:13:48;;;;;;;18.33;9.98;;;;;;;;;;4999735;28;20136;-74
2021/12/13 14:16:20;;;;;;;23.55;11.32;;;;;;;;;;4996758;28;20458;-75
2021/12/13 14:18:49;;;;;;;18.80;10.60;;;;;;;;;;4983388;28;20085;-75
2021/12/13 14:21:18;;;;;;;23.83;11.80;;;;;;;;;;4987111;28;20069;-75
2021/12/13 14:23:47;;;;;;;24.88;11.45;;;;;;;;;;4983380;28;20049;-75
2021/12/13 14:26:20;;;;;;;28.42;11.55;;;;;;;;;;4979198;28;20058;-75
2021/12/13 14:28:52;;;;;;;23.98;11.30;;;;;;;;;;4979969;28;20068;-76
2021/12/13 14:31:23;;;;;;;26.23;12.63;;;;;;;;;;4982570;28;20500;-76
2021/12/13 14:34:11;;;;;;;28.45;13.55;;;;;;;;;;4977886;28;20547;-75
2021/12/13 14:36:59;;;;;;;19.90;11.63;;;;;;;;;;4979631;28;20054;-75
2021/12/13 14:39:38;;;;;;;24.67;13.20;;;;;;;;;;4981107;28;20070;-74
2021/12/13 14:42:17;;;;;;;21.95;11.85;;;;;;;;;;4983690;28;20042;-75
2021/12/13 14:44:49;;;;;;;26.17;13.60;;;;;;;;;;4987052;28;20431;-75
2021/12/13 14:47:23;;;;;;;33.92;14.73;;;;;;;;;;4984623;28;20050;-75
2021/12/13 14:49:53;;;;;;;19.98;11.73;;;;;;;;;;4983884;28;20405;-76
2021/12/13 14:52:23;;;;;;;30.50;13.20;;;;;;;;;;4977988;28;20467;-75
2021/12/13 14:54:52;;;;;;;27.35;12.70;;;;;;;;;;4983632;28;20474;-76
2021/12/13 14:57:22;;;;;;;31.13;14.02;;;;;;;;;;4984047;28;20498;-75